This is the latest recevied weather packets stored in our database for station/object DH0DM-13. If no packets are shown the sender has not sent any weather packets the latest 10 day(s).
| Time | Temp. | Humidity | Pressure | Rain* | Wind** | Luminosity | Snow |
|---|---|---|---|---|---|---|---|
| 1777298180 | 16.67° C | 29% | 995.3 hPa | 0 mm | 6.71 m/s, 13° | - | - |
| 1777297579 | 17.22° C | 29% | 995.5 hPa | 0 mm | 8.05 m/s, 295° | - | - |
| 1777296978 | 16.67° C | 30% | 995.5 hPa | 0 mm | 6.26 m/s, 268° | - | - |
| 1777296377 | 17.22° C | 30% | 995.5 hPa | 0 mm | 3.58 m/s, 270° | - | - |
| 1777295776 | 16.67° C | 33% | 995.6 hPa | 0 mm | 1.79 m/s, 289° | - | - |
| 1777295175 | 16.67° C | 34% | 995.8 hPa | 0 mm | 1.79 m/s, 220° | - | - |
| 1777294575 | 17.22° C | 32% | 995.7 hPa | 0 mm | 1.34 m/s, 295° | - | - |
| 1777293974 | 17.78° C | 31% | 995.8 hPa | 0 mm | 1.34 m/s, 219° | - | - |
| 1777293373 | 16.67° C | 29% | 995.9 hPa | 0 mm | 0 m/s | - | - |
| 1777292772 | 17.22° C | 30% | 996 hPa | 0 mm | 0.89 m/s, 218° | - | - |
| 1777292171 | 16.67° C | 32% | 996 hPa | 0 mm | 2.24 m/s, 1° | - | - |
| 1777291570 | 16.67° C | 31% | 996 hPa | 0 mm | 0 m/s | - | - |
| 1777290969 | 16.67° C | 30% | 996.1 hPa | 0 mm | 4.02 m/s, 318° | - | - |
| 1777290368 | 16.67° C | 30% | 996.2 hPa | 0 mm | 1.79 m/s, 295° | - | - |
| 1777289767 | 16.11° C | 33% | 996.3 hPa | 0 mm | 3.58 m/s, 267° | - | - |
| 1777289166 | 15.56° C | 32% | 996.4 hPa | 0 mm | 2.68 m/s, 59° | - | - |
| 1777288566 | 16.67° C | 32% | 996.4 hPa | 0 mm | 0 m/s | - | - |
| 1777287964 | 16.67° C | 35% | 996.5 hPa | 0 mm | 0 m/s | - | - |
| 1777287363 | 16.11° C | 32% | 996.8 hPa | 0 mm | 3.58 m/s, 349° | - | - |
| 1777286762 | 16.67° C | 32% | 996.7 hPa | 0 mm | 2.24 m/s, 339° | - | - |
| 1777286162 | 15.56° C | 35% | 996.6 hPa | 0 mm | 2.68 m/s, 281° | - | - |
| 1777285561 | 15.56° C | 34% | 996.9 hPa | 0 mm | 4.92 m/s, 232° | - | - |
| 1777284960 | 15.56° C | 32% | 996.9 hPa | 0 mm | 1.34 m/s, 229° | - | - |
| 1777284359 | 16.11° C | 31% | 997.1 hPa | 0 mm | 3.58 m/s, 199° | - | - |
| 1777283758 | 16.11° C | 32% | 997.2 hPa | 0 mm | 0 m/s | - | - |
* Rain since midnight (hover to see other rain measurements)
** Current wind speed in m/s (hover to see current wind gust speed)